createdAt,value
2019-02-24T00:00:34.871Z,101607.92
2019-02-24T00:03:03.397Z,101598.70
2019-02-24T00:05:31.644Z,101597.27
2019-02-24T00:07:59.964Z,101598.53
2019-02-24T00:10:28.211Z,101601.28
2019-02-24T00:12:56.444Z,101594.30
2019-02-24T00:15:24.990Z,101589.05
2019-02-24T00:17:53.578Z,101590.48
2019-02-24T00:20:21.816Z,101596.84
2019-02-24T00:22:50.327Z,101594.30
2019-02-24T00:25:18.816Z,101590.48
2019-02-24T00:27:47.049Z,101589.95
2019-02-24T00:30:15.290Z,101589.87
2019-02-24T00:32:43.524Z,101588.07
2019-02-24T00:35:12.125Z,101595.33
2019-02-24T00:37:40.360Z,101591.52
2019-02-24T00:40:08.886Z,101593.69
2019-02-24T00:42:37.296Z,101585.90
2019-02-24T00:45:07.604Z,101580.72
2019-02-24T00:47:35.840Z,101584.94
2019-02-24T00:50:05.684Z,101588.25
2019-02-24T00:52:33.911Z,101578.25
2019-02-24T00:55:02.262Z,101577.35
2019-02-24T00:57:30.499Z,101577.82
2019-02-24T00:59:58.755Z,101582.77
2019-02-24T01:02:27.268Z,101576.05
2019-02-24T01:04:55.753Z,101580.46
2019-02-24T01:07:24.221Z,101581.09
2019-02-24T01:09:52.451Z,101587.52
2019-02-24T01:12:20.697Z,101583.50
2019-02-24T01:14:49.170Z,101584.07
2019-02-24T01:17:17.408Z,101589.52
2019-02-24T01:19:45.640Z,101593.94
2019-02-24T01:22:13.888Z,101590.89
2019-02-24T01:24:42.122Z,101592.52
2019-02-24T01:27:10.364Z,101593.45
2019-02-24T01:29:38.931Z,101593.83
2019-02-24T01:32:07.175Z,101595.66
2019-02-24T01:34:35.410Z,101594.85
2019-02-24T01:37:03.653Z,101596.69
2019-02-24T01:39:32.243Z,101596.88
2019-02-24T01:42:00.731Z,101593.64
2019-02-24T01:44:29.213Z,101578.94
2019-02-24T01:46:57.693Z,101582.38
2019-02-24T01:49:25.928Z,101580.58
2019-02-24T01:51:54.179Z,101583.28
2019-02-24T01:54:22.415Z,101583.48
2019-02-24T01:56:50.910Z,101584.05
2019-02-24T01:59:19.385Z,101589.30
2019-02-24T02:01:47.622Z,101584.88
2019-02-24T02:04:16.683Z,101584.16
2019-02-24T02:06:44.924Z,101583.27
2019-02-24T02:09:13.431Z,101584.36
2019-02-24T02:11:41.667Z,101584.72
2019-02-24T02:14:10.174Z,101584.72
2019-02-24T02:16:38.415Z,101582.92
2019-02-24T02:19:06.932Z,101586.55
2019-02-24T02:21:35.169Z,101580.10
2019-02-24T02:24:03.415Z,101577.37
2019-02-24T02:26:31.648Z,101580.47
2019-02-24T02:29:00.154Z,101572.86
2019-02-24T02:31:28.608Z,101559.85
2019-02-24T02:33:56.848Z,101566.08
2019-02-24T02:36:25.090Z,101563.91
2019-02-24T02:38:53.395Z,101563.91
2019-02-24T02:41:21.855Z,101566.81
2019-02-24T02:43:50.434Z,101568.62
2019-02-24T02:46:19.016Z,101566.28
2019-02-24T02:48:47.256Z,101558.86
2019-02-24T02:51:15.518Z,101562.84
2019-02-24T02:53:43.861Z,101555.25
2019-02-24T02:56:13.156Z,101553.47
2019-02-24T02:58:41.663Z,101548.94
2019-02-24T03:01:09.913Z,101549.47
2019-02-24T03:03:38.140Z,101545.16
2019-02-24T03:06:08.006Z,101542.61
2019-02-24T03:08:45.395Z,101545.16
2019-02-24T03:11:13.895Z,101549.86
2019-02-24T03:13:42.220Z,101538.98
2019-02-24T03:16:10.462Z,101539.59
2019-02-24T03:18:38.700Z,101549.77
2019-02-24T03:21:06.928Z,101552.86
2019-02-24T03:23:35.178Z,101550.16
2019-02-24T03:26:03.477Z,101554.52
2019-02-24T03:28:32.018Z,101556.32
2019-02-24T03:31:00.244Z,101545.10
2019-02-24T03:33:28.576Z,101554.34
2019-02-24T03:35:56.814Z,101551.81
2019-02-24T03:38:25.315Z,101555.84
2019-02-24T03:40:53.551Z,101552.23
2019-02-24T03:43:21.784Z,101549.55
2019-02-24T03:45:50.019Z,101550.81
2019-02-24T03:48:18.255Z,101550.45
2019-02-24T03:50:46.494Z,101550.25
2019-02-24T03:53:14.718Z,101547.70
2019-02-24T03:55:42.959Z,101554.20
2019-02-24T03:58:11.195Z,101550.41
2019-02-24T04:00:39.731Z,101548.42
2019-02-24T04:03:07.965Z,101554.95
2019-02-24T04:05:36.461Z,101554.61
2019-02-24T04:08:05.508Z,101554.80
2019-02-24T04:10:33.967Z,101555.53
2019-02-24T04:13:02.202Z,101549.56
2019-02-24T04:15:30.432Z,101554.80
2019-02-24T04:17:58.910Z,101554.80
2019-02-24T04:20:27.137Z,101552.61
2019-02-24T04:22:55.374Z,101555.69
2019-02-24T04:25:23.606Z,101557.52
2019-02-24T04:27:51.844Z,101556.27
2019-02-24T04:30:20.076Z,101552.46
2019-02-24T04:32:48.325Z,101543.59
2019-02-24T04:35:16.558Z,101542.14
2019-02-24T04:37:44.799Z,101545.05
2019-02-24T04:40:13.285Z,101549.39
2019-02-24T04:42:41.593Z,101547.22
2019-02-24T04:45:09.894Z,101546.31
2019-02-24T04:47:38.403Z,101554.09
2019-02-24T04:50:06.635Z,101556.09
2019-02-24T04:52:34.981Z,101555.59
2019-02-24T04:55:03.217Z,101556.31
2019-02-24T04:57:31.456Z,101555.23
2019-02-24T05:00:00.011Z,101561.04
2019-02-24T05:02:28.259Z,101558.87
2019-02-24T05:04:56.568Z,101553.47
2019-02-24T05:07:25.135Z,101559.82
2019-02-24T05:09:53.368Z,101558.43
2019-02-24T05:12:21.607Z,101564.04
2019-02-24T05:14:49.840Z,101568.19
2019-02-24T05:17:18.071Z,101569.09
2019-02-24T05:19:46.621Z,101569.09
2019-02-24T05:22:14.858Z,101566.16
2019-02-24T05:24:43.092Z,101563.62
2019-02-24T05:27:11.318Z,101565.66
2019-02-24T05:29:45.929Z,101559.31
2019-02-24T05:32:09.514Z,101566.57
2019-02-24T05:34:37.762Z,101562.96
2019-02-24T05:37:06.220Z,101566.05
2019-02-24T05:39:34.461Z,101563.69
2019-02-24T05:42:02.690Z,101559.34
2019-02-24T05:44:30.933Z,101558.08
2019-02-24T05:46:59.167Z,101549.92
2019-02-24T05:49:27.408Z,101559.88
2019-02-24T05:51:55.647Z,101563.31
2019-02-24T05:54:23.915Z,101561.87
2019-02-24T05:56:52.114Z,101559.89
2019-02-24T05:59:20.607Z,101572.45
2019-02-24T06:01:48.842Z,101570.27
2019-02-24T06:04:17.083Z,101569.91
2019-02-24T06:06:45.644Z,101571.18
2019-02-24T06:09:13.926Z,101570.05
2019-02-24T06:11:42.159Z,101574.22
2019-02-24T06:14:10.395Z,101576.44
2019-02-24T06:16:38.626Z,101576.75
2019-02-24T06:19:06.892Z,101585.26
2019-02-24T06:21:35.343Z,101581.09
2019-02-24T06:24:03.587Z,101588.56
2019-02-24T06:26:31.824Z,101588.21
2019-02-24T06:29:00.051Z,101587.86
2019-02-24T06:31:28.297Z,101589.48
2019-02-24T06:33:56.585Z,101588.22
2019-02-24T06:36:24.827Z,101591.47
2019-02-24T06:38:53.055Z,101590.03
2019-02-24T06:41:21.615Z,101594.02
2019-02-24T06:43:49.850Z,101599.62
2019-02-24T06:46:18.088Z,101598.52
2019-02-24T06:48:46.319Z,101596.30
2019-02-24T06:51:14.949Z,101605.88
2019-02-24T06:53:43.178Z,101599.70
2019-02-24T06:56:11.415Z,101602.00
2019-02-24T06:58:39.644Z,101597.81
2019-02-24T07:01:07.883Z,101592.36
2019-02-24T07:03:36.116Z,101588.49
2019-02-24T07:06:04.360Z,101588.09
2019-02-24T07:08:32.587Z,101584.76
2019-02-24T07:11:00.822Z,101581.98
2019-02-24T07:13:29.057Z,101587.69
2019-02-24T07:15:57.292Z,101589.59
2019-02-24T07:18:25.519Z,101595.16
2019-02-24T07:20:53.756Z,101595.24
2019-02-24T07:23:22.323Z,101600.07
2019-02-24T07:25:50.552Z,101595.08
2019-02-24T07:28:18.898Z,101590.64
2019-02-24T07:30:47.124Z,101590.69
2019-02-24T07:33:15.363Z,101589.82
2019-02-24T07:35:43.920Z,101593.30
2019-02-24T07:38:12.167Z,101585.33
2019-02-24T07:40:40.415Z,101585.52
2019-02-24T07:43:08.652Z,101582.84
2019-02-24T07:45:36.895Z,101573.47
2019-02-24T07:48:05.143Z,101569.20
2019-02-24T07:50:33.376Z,101567.97
2019-02-24T07:53:01.630Z,101570.95
2019-02-24T07:55:30.009Z,101573.48
2019-02-24T07:57:58.250Z,101575.29
2019-02-24T08:00:32.196Z,101575.29
2019-02-24T08:02:56.804Z,101576.25
2019-02-24T08:05:25.045Z,101582.95
2019-02-24T08:07:53.277Z,101583.50
2019-02-24T08:10:21.543Z,101572.31
2019-02-24T08:12:50.004Z,101572.31
2019-02-24T08:15:18.245Z,101587.58
2019-02-24T08:17:46.487Z,101565.92
2019-02-24T08:20:14.727Z,101583.94
2019-02-24T08:22:42.961Z,101583.94
2019-02-24T08:25:11.437Z,101581.25
2019-02-24T08:27:39.900Z,101581.25
2019-02-24T08:30:12.136Z,101579.99
2019-02-24T08:32:40.368Z,101570.06
2019-02-24T08:35:08.883Z,101588.81
2019-02-24T08:37:37.115Z,101593.09
2019-02-24T08:40:07.200Z,101593.09
2019-02-24T08:42:35.460Z,101588.88
2019-02-24T08:45:04.773Z,101592.67
2019-02-24T08:47:33.008Z,101592.67
2019-02-24T08:50:01.255Z,101573.53
2019-02-24T08:52:29.488Z,101601.03
2019-02-24T08:54:57.737Z,101599.94
2019-02-24T08:57:26.196Z,101590.33
2019-02-24T08:59:54.663Z,101590.33
2019-02-24T09:02:23.124Z,101597.48
2019-02-24T09:04:51.368Z,101597.48
2019-02-24T09:07:19.611Z,101600.09
2019-02-24T09:09:47.854Z,101602.22
2019-02-24T09:12:16.337Z,101582.77
2019-02-24T09:14:44.791Z,101582.77
2019-02-24T09:17:13.033Z,101597.70
2019-02-24T09:19:41.261Z,101597.70
2019-02-24T09:22:09.519Z,101591.86
2019-02-24T09:24:37.748Z,101591.86
2019-02-24T09:27:06.016Z,101602.77
2019-02-24T09:29:34.225Z,101604.53
2019-02-24T09:32:02.463Z,101588.96
2019-02-24T09:34:30.700Z,101601.59
2019-02-24T09:36:58.940Z,101613.48
2019-02-24T09:39:27.180Z,101603.13
2019-02-24T09:41:55.420Z,101613.69
2019-02-24T09:44:23.938Z,101613.69
2019-02-24T09:46:52.404Z,101618.89
2019-02-24T09:49:20.644Z,101625.58
2019-02-24T09:51:49.114Z,101623.20
2019-02-24T09:54:17.345Z,101618.22
2019-02-24T09:56:45.598Z,101622.38
2019-02-24T09:59:13.831Z,101621.00
2019-02-24T10:01:42.299Z,101621.30
2019-02-24T10:04:10.754Z,101622.09
2019-02-24T10:06:38.994Z,101627.66
2019-02-24T10:09:07.230Z,101633.44
2019-02-24T10:11:35.461Z,101627.30
2019-02-24T10:14:03.724Z,101634.35
2019-02-24T10:16:31.930Z,101634.13
2019-02-24T10:19:00.166Z,101641.56
2019-02-24T10:21:28.405Z,101638.25
2019-02-24T10:23:56.675Z,101639.31
2019-02-24T10:26:25.173Z,101641.11
2019-02-24T10:28:53.659Z,101635.87
2019-02-24T10:31:22.241Z,101634.70
2019-02-24T10:33:50.483Z,101637.52
2019-02-24T10:36:18.814Z,101635.10
2019-02-24T10:38:47.054Z,101632.41
2019-02-24T10:41:15.283Z,101632.16
2019-02-24T10:43:43.524Z,101631.39
2019-02-24T10:46:11.759Z,101630.09
2019-02-24T10:48:39.995Z,101637.53
2019-02-24T10:51:08.554Z,101625.34
2019-02-24T10:53:37.020Z,101632.55
2019-02-24T10:56:05.265Z,101634.84
2019-02-24T10:58:34.874Z,101634.88
2019-02-24T11:01:03.237Z,101624.75
2019-02-24T11:03:31.470Z,101620.88
2019-02-24T11:05:59.704Z,101615.74
2019-02-24T11:08:27.949Z,101612.28
2019-02-24T11:10:56.179Z,101618.05
2019-02-24T11:13:24.416Z,101608.81
2019-02-24T11:15:52.664Z,101614.95
2019-02-24T11:18:20.900Z,101610.70
2019-02-24T11:20:49.359Z,101606.30
2019-02-24T11:23:17.854Z,101607.30
2019-02-24T11:25:46.087Z,101608.30
2019-02-24T11:28:14.317Z,101611.73
2019-02-24T11:30:42.835Z,101611.20
2019-02-24T11:33:11.315Z,101610.55
2019-02-24T11:35:39.550Z,101607.61
2019-02-24T11:38:07.786Z,101613.00
2019-02-24T11:40:36.260Z,101617.50
2019-02-24T11:43:04.777Z,101610.31
2019-02-24T11:45:33.243Z,101603.77
2019-02-24T11:48:01.475Z,101606.00
2019-02-24T11:50:29.710Z,101603.37
2019-02-24T11:52:57.951Z,101602.20
2019-02-24T11:55:26.192Z,101600.27
2019-02-24T11:57:54.421Z,101593.30
2019-02-24T12:00:22.659Z,101591.48
2019-02-24T12:02:50.889Z,101586.08
2019-02-24T12:05:19.149Z,101583.76
2019-02-24T12:07:47.383Z,101578.11
2019-02-24T12:10:15.621Z,101579.13
2019-02-24T12:12:44.078Z,101576.13
2019-02-24T12:15:13.550Z,101578.41
2019-02-24T12:17:42.043Z,101576.34
2019-02-24T12:20:13.954Z,101575.58
2019-02-24T12:22:42.202Z,101575.13
2019-02-24T12:25:11.178Z,101568.03
2019-02-24T12:27:39.414Z,101564.30
2019-02-24T12:30:17.432Z,101561.06
2019-02-24T12:32:45.671Z,101553.44
2019-02-24T12:35:13.910Z,101548.39
2019-02-24T12:37:42.158Z,101543.73
2019-02-24T12:40:13.830Z,101538.64
2019-02-24T12:42:42.067Z,101531.67
2019-02-24T12:45:10.937Z,101531.78
2019-02-24T12:47:39.186Z,101529.72
2019-02-24T12:50:12.608Z,101529.45
2019-02-24T12:52:41.178Z,101529.50
2019-02-24T12:55:10.351Z,101525.45
2019-02-24T12:57:38.767Z,101516.77
2019-02-24T13:00:14.695Z,101519.30
2019-02-24T13:02:42.943Z,101520.78
2019-02-24T13:05:11.474Z,101523.82
2019-02-24T13:07:39.715Z,101519.18
2019-02-24T13:10:13.887Z,101517.62
2019-02-24T13:12:42.441Z,101516.05
2019-02-24T13:15:10.685Z,101516.37
2019-02-24T13:17:39.314Z,101506.92
2019-02-24T13:20:11.575Z,101505.36
2019-02-24T13:22:39.888Z,101501.72
2019-02-24T13:25:10.734Z,101495.52
2019-02-24T13:27:39.247Z,101503.32
2019-02-24T13:30:12.619Z,101498.79
2019-02-24T13:32:40.932Z,101491.96
2019-02-24T13:35:09.541Z,101483.00
2019-02-24T13:37:37.792Z,101483.73
2019-02-24T13:40:14.049Z,101483.54
2019-02-24T13:42:42.285Z,101473.29
2019-02-24T13:45:21.312Z,101473.31
2019-02-24T13:47:49.829Z,101460.37
2019-02-24T13:50:18.322Z,101459.54
2019-02-24T13:52:46.556Z,101457.73
2019-02-24T13:55:15.441Z,101454.37
2019-02-24T13:57:44.084Z,101443.99
2019-02-24T14:00:22.167Z,101437.77
2019-02-24T14:02:50.408Z,101442.06
2019-02-24T14:05:18.650Z,101447.33
2019-02-24T14:07:46.918Z,101445.78
2019-02-24T14:10:15.688Z,101444.57
2019-02-24T14:12:44.174Z,101445.39
2019-02-24T14:15:13.885Z,101430.09
2019-02-24T14:17:42.121Z,101440.75
2019-02-24T14:20:15.439Z,101443.16
2019-02-24T14:22:43.675Z,101445.95
2019-02-24T14:25:13.157Z,101440.89
2019-02-24T14:27:41.615Z,101440.99
2019-02-24T14:30:12.501Z,101439.41
2019-02-24T14:32:41.043Z,101448.38
2019-02-24T14:35:11.755Z,101449.15
2019-02-24T14:37:39.989Z,101444.19
2019-02-24T14:40:09.571Z,101449.94
2019-02-24T14:42:37.820Z,101444.75
2019-02-24T14:45:09.504Z,101441.95
2019-02-24T14:47:37.748Z,101447.67
2019-02-24T14:50:08.337Z,101439.71
2019-02-24T14:52:36.568Z,101439.16
2019-02-24T14:55:12.394Z,101443.41
2019-02-24T14:57:40.634Z,101445.34
2019-02-24T15:00:12.440Z,101449.72
2019-02-24T15:02:42.764Z,101450.95
2019-02-24T15:05:16.364Z,101448.31
2019-02-24T15:07:44.121Z,101454.13
2019-02-24T15:10:23.269Z,101459.09
2019-02-24T15:12:51.775Z,101459.77
2019-02-24T15:15:36.855Z,101454.30
2019-02-24T15:18:05.119Z,101459.50
2019-02-24T15:20:33.655Z,101454.94
2019-02-24T15:23:01.907Z,101461.38
2019-02-24T15:25:30.468Z,101467.30
2019-02-24T15:27:58.711Z,101465.86
2019-02-24T15:30:32.407Z,101462.97
2019-02-24T15:33:00.648Z,101466.40
2019-02-24T15:35:28.908Z,101468.68
2019-02-24T15:37:57.539Z,101471.53
2019-02-24T15:40:25.877Z,101475.86
2019-02-24T15:42:54.121Z,101471.36
2019-02-24T15:45:22.443Z,101474.71
2019-02-24T15:47:50.670Z,101476.69
2019-02-24T15:50:18.925Z,101479.28
2019-02-24T15:52:47.140Z,101475.11
2019-02-24T15:55:16.318Z,101478.05
2019-02-24T15:57:44.547Z,101467.70
2019-02-24T16:00:18.150Z,101475.74
2019-02-24T16:02:46.389Z,101474.33
2019-02-24T16:05:14.628Z,101476.37
2019-02-24T16:07:42.859Z,101471.93
2019-02-24T16:10:13.807Z,101473.11
2019-02-24T16:12:42.050Z,101475.41
2019-02-24T16:15:12.938Z,101477.17
2019-02-24T16:17:41.176Z,101472.07
2019-02-24T16:20:15.213Z,101477.20
2019-02-24T16:22:43.680Z,101481.41
2019-02-24T16:25:12.280Z,101474.98
2019-02-24T16:27:40.513Z,101470.70
2019-02-24T16:30:14.209Z,101473.29
2019-02-24T16:32:42.537Z,101467.61
2019-02-24T16:35:15.329Z,101463.08
2019-02-24T16:37:43.566Z,101465.42
2019-02-24T16:40:20.380Z,101470.94
2019-02-24T16:42:48.837Z,101468.28
2019-02-24T16:45:17.223Z,101470.91
2019-02-24T16:47:45.507Z,101436.56
2019-02-24T16:50:16.262Z,101468.66
2019-02-24T16:52:44.497Z,101466.20
2019-02-24T16:55:14.381Z,101463.38
2019-02-24T16:57:42.721Z,101471.83
2019-02-24T17:00:14.744Z,101460.11
2019-02-24T17:02:42.989Z,101461.33
2019-02-24T17:05:11.231Z,101463.38
2019-02-24T17:07:39.511Z,101462.11
2019-02-24T17:10:18.911Z,101459.35
2019-02-24T17:12:47.119Z,101464.08
2019-02-24T17:15:15.595Z,101471.92
2019-02-24T17:17:44.121Z,101471.11
2019-02-24T17:20:27.160Z,101473.28
2019-02-24T17:22:55.399Z,101469.95
2019-02-24T17:25:23.650Z,101476.24
2019-02-24T17:27:51.870Z,101480.58
2019-02-24T17:30:20.098Z,101492.83
2019-02-24T17:32:48.335Z,101500.05
2019-02-24T17:35:16.787Z,101503.84
2019-02-24T17:37:45.041Z,101504.64
2019-02-24T17:40:19.473Z,101506.75
2019-02-24T17:42:48.349Z,101511.40
2019-02-24T17:45:16.578Z,101513.26
2019-02-24T17:47:44.837Z,101518.42
2019-02-24T17:50:15.163Z,101521.56
2019-02-24T17:52:43.405Z,101522.98
2019-02-24T17:55:14.869Z,101524.83
2019-02-24T17:57:43.117Z,101513.59
2019-02-24T18:00:30.672Z,101520.52
2019-02-24T18:02:58.954Z,101521.80
2019-02-24T18:05:27.412Z,101524.80
2019-02-24T18:07:55.645Z,101527.61
2019-02-24T18:10:23.872Z,101529.53
2019-02-24T18:12:52.107Z,101524.02
2019-02-24T18:15:20.408Z,101516.99
2019-02-24T18:17:48.660Z,101517.38
2019-02-24T18:20:18.723Z,101516.62
2019-02-24T18:22:46.973Z,101512.38
2019-02-24T18:25:15.182Z,101528.55
2019-02-24T18:27:43.426Z,101513.16
2019-02-24T18:30:20.684Z,101517.63
2019-02-24T18:32:49.142Z,101515.45
2019-02-24T18:35:17.381Z,101512.77
2019-02-24T18:37:45.611Z,101512.49
2019-02-24T18:40:14.693Z,101508.78
2019-02-24T18:42:43.122Z,101513.50
2019-02-24T18:45:13.124Z,101511.95
2019-02-24T18:47:41.582Z,101506.17
2019-02-24T18:50:11.775Z,101508.60
2019-02-24T18:52:40.226Z,101506.57
2019-02-24T18:55:10.035Z,101508.34
2019-02-24T18:57:38.260Z,101503.33
2019-02-24T19:00:09.669Z,101506.14
2019-02-24T19:02:37.980Z,101509.75
2019-02-24T19:05:08.131Z,101504.73
2019-02-24T19:07:36.369Z,101501.91
2019-02-24T19:10:07.936Z,101504.44
2019-02-24T19:12:36.511Z,101503.66
2019-02-24T19:15:06.495Z,101510.53
2019-02-24T19:17:34.729Z,101508.60
2019-02-24T19:20:03.500Z,101510.78
2019-02-24T19:25:05.952Z,101506.25
2019-02-24T19:27:34.284Z,101502.66
2019-02-24T19:30:02.527Z,101509.67
2019-02-24T19:32:31.034Z,101512.09
2019-02-24T19:34:59.615Z,101514.80
2019-02-24T19:37:27.859Z,101515.17
2019-02-24T19:39:56.136Z,101509.78
2019-02-24T19:42:24.598Z,101517.56
2019-02-24T19:44:53.138Z,101522.91
2019-02-24T19:47:21.731Z,101516.14
2019-02-24T19:49:50.012Z,101510.32
2019-02-24T19:52:18.206Z,101509.28
2019-02-24T19:54:46.444Z,101510.28
2019-02-24T19:57:14.694Z,101512.59
2019-02-24T19:59:42.928Z,101502.36
2019-02-24T20:02:11.176Z,101506.67
2019-02-24T20:04:39.416Z,101509.27
2019-02-24T20:07:07.660Z,101521.93
2019-02-24T20:09:36.118Z,101527.70
2019-02-24T20:12:04.805Z,101528.41
2019-02-24T20:14:33.035Z,101527.70
2019-02-24T20:17:01.519Z,101538.77
2019-02-24T20:19:29.753Z,101542.02
2019-02-24T20:21:58.007Z,101541.03
2019-02-24T20:24:26.238Z,101538.42
2019-02-24T20:26:54.478Z,101547.73
2019-02-24T20:29:22.943Z,101562.09
2019-02-24T20:31:51.191Z,101556.97
2019-02-24T20:34:25.530Z,101573.28
2019-02-24T20:36:49.656Z,101567.50
2019-02-24T20:39:17.891Z,101569.63
2019-02-24T20:41:46.133Z,101571.66
2019-02-24T20:44:14.389Z,101569.39
2019-02-24T20:46:42.637Z,101571.05
2019-02-24T20:49:11.214Z,101576.53
2019-02-24T20:51:39.685Z,101556.23
2019-02-24T20:54:07.929Z,101579.55
2019-02-24T20:56:36.171Z,101574.81
2019-02-24T20:59:04.414Z,101573.16
2019-02-24T21:01:32.651Z,101571.27
2019-02-24T21:04:01.223Z,101573.98
2019-02-24T21:06:29.488Z,101566.60
2019-02-24T21:08:57.728Z,101562.48
2019-02-24T21:11:26.270Z,101559.78
2019-02-24T21:13:54.512Z,101565.77
2019-02-24T21:16:22.974Z,101566.52
2019-02-24T21:18:51.453Z,101565.61
2019-02-24T21:21:19.685Z,101572.77
2019-02-24T21:23:47.930Z,101565.47
2019-02-24T21:26:16.175Z,101563.27
2019-02-24T21:28:44.650Z,101563.27
2019-02-24T21:31:13.121Z,101583.70
2019-02-24T21:33:41.610Z,101580.31
2019-02-24T21:36:09.878Z,101572.77
2019-02-24T21:38:38.121Z,101569.32
2019-02-24T21:41:06.605Z,101566.66
2019-02-24T21:43:34.843Z,101579.64
2019-02-24T21:46:03.438Z,101575.81
2019-02-24T21:48:31.918Z,101585.50
2019-02-24T21:51:00.176Z,101578.44
2019-02-24T21:53:28.406Z,101575.36
2019-02-24T21:55:56.654Z,101581.45
2019-02-24T21:58:24.912Z,101581.56
2019-02-24T22:00:53.500Z,101585.84
2019-02-24T22:03:21.991Z,101578.70
2019-02-24T22:05:50.242Z,101556.63
2019-02-24T22:08:18.739Z,101567.66
2019-02-24T22:10:47.241Z,101576.14
2019-02-24T22:13:15.816Z,101576.14
2019-02-24T22:15:44.072Z,101573.36
2019-02-24T22:18:12.717Z,101573.36
2019-02-24T22:20:40.983Z,101578.98
2019-02-24T22:23:09.224Z,101573.96
2019-02-24T22:25:37.470Z,101579.67
2019-02-24T22:28:05.984Z,101586.24
2019-02-24T22:30:35.301Z,101586.24
2019-02-24T22:33:03.532Z,101566.28
2019-02-24T22:35:32.059Z,101575.96
2019-02-24T22:38:00.294Z,101571.86
2019-02-24T22:40:28.536Z,101577.56
2019-02-24T22:42:56.772Z,101555.98
2019-02-24T22:45:25.048Z,101534.84
2019-02-24T22:47:53.328Z,101534.84
2019-02-24T22:50:21.575Z,101559.66
2019-02-24T22:52:50.105Z,101559.88
2019-02-24T22:55:19.605Z,101550.65
2019-02-24T22:57:47.837Z,101545.17
2019-02-24T23:00:29.103Z,101552.08
2019-02-24T23:02:57.576Z,101549.75
2019-02-24T23:05:25.881Z,101545.55
2019-02-24T23:07:54.117Z,101544.27
2019-02-24T23:10:22.345Z,101542.32
2019-02-24T23:12:50.640Z,101540.74
2019-02-24T23:15:18.875Z,101540.25
2019-02-24T23:17:47.356Z,101543.55
2019-02-24T23:20:15.585Z,101541.36
2019-02-24T23:22:44.070Z,101538.76
2019-02-24T23:25:12.306Z,101526.30
2019-02-24T23:27:40.554Z,101538.07
2019-02-24T23:30:10.090Z,101538.07
2019-02-24T23:32:38.335Z,101536.55
2019-02-24T23:35:07.142Z,101544.07
2019-02-24T23:37:35.414Z,101548.64
2019-02-24T23:40:05.764Z,101548.64
2019-02-24T23:42:33.998Z,101551.78
2019-02-24T23:45:09.534Z,101551.69
2019-02-24T23:47:32.421Z,101552.59
2019-02-24T23:50:00.945Z,101533.61
2019-02-24T23:52:29.187Z,101557.53
2019-02-24T23:54:57.433Z,101551.87
2019-02-24T23:57:25.666Z,101556.59
2019-02-24T23:59:53.913Z,101556.59
